createdAt,value
2023-05-01T00:02:30.838Z,64.07
2023-05-01T00:05:01.916Z,64.40
2023-05-01T00:07:33.343Z,64.62
2023-05-01T00:10:04.086Z,64.75
2023-05-01T00:12:35.073Z,64.88
2023-05-01T00:15:09.228Z,64.90
2023-05-01T00:17:39.969Z,65.22
2023-05-01T00:20:12.237Z,65.28
2023-05-01T00:22:43.345Z,65.19
2023-05-01T00:25:17.317Z,65.33
2023-05-01T00:27:48.915Z,65.61
2023-05-01T00:30:19.755Z,65.72
2023-05-01T00:32:51.417Z,65.49
2023-05-01T00:35:23.305Z,65.45
2023-05-01T00:37:55.187Z,65.87
2023-05-01T00:40:26.176Z,65.80
2023-05-01T00:42:57.455Z,65.92
2023-05-01T00:45:27.975Z,65.79
2023-05-01T00:47:58.741Z,65.62
2023-05-01T00:50:29.771Z,65.47
2023-05-01T00:53:01.400Z,65.38
2023-05-01T00:55:33.795Z,65.61
2023-05-01T00:58:05.678Z,65.91
2023-05-01T01:00:36.485Z,65.99
2023-05-01T01:03:08.441Z,66.16
2023-05-01T01:05:47.498Z,66.30
2023-05-01T01:08:33.085Z,66.41
2023-05-01T01:11:15.515Z,66.59
2023-05-01T01:14:13.949Z,66.79
2023-05-01T01:16:50.263Z,66.95
2023-05-01T01:19:54.980Z,66.78
2023-05-01T01:22:28.592Z,66.93
2023-05-01T01:25:14.091Z,66.84
2023-05-01T01:27:59.738Z,66.81
2023-05-01T01:30:42.435Z,66.73
2023-05-01T01:33:48.618Z,66.56
2023-05-01T01:36:22.502Z,66.32
2023-05-01T01:39:01.697Z,66.34
2023-05-01T01:41:36.251Z,66.61
2023-05-01T01:44:13.408Z,66.79
2023-05-01T01:46:44.650Z,67.06
2023-05-01T01:49:20.585Z,67.17
2023-05-01T01:51:52.630Z,67.23
2023-05-01T01:54:28.881Z,67.34
2023-05-01T01:57:03.412Z,67.57
2023-05-01T01:59:36.189Z,67.54
2023-05-01T02:02:08.690Z,67.78
2023-05-01T02:04:42.262Z,67.53
2023-05-01T02:07:14.821Z,67.24
2023-05-01T02:09:47.187Z,67.39
2023-05-01T02:12:20.696Z,67.62
2023-05-01T02:14:53.833Z,67.81
2023-05-01T02:17:27.576Z,67.83
2023-05-01T02:19:59.802Z,67.96
2023-05-01T02:22:31.925Z,67.57
2023-05-01T02:25:04.897Z,67.43
2023-05-01T02:27:38.791Z,67.13
2023-05-01T02:30:10.551Z,67.47
2023-05-01T02:32:41.447Z,67.54
2023-05-01T02:35:12.138Z,67.66
2023-05-01T02:37:42.850Z,67.41
2023-05-01T02:40:17.091Z,67.69
2023-05-01T02:42:50.464Z,67.37
2023-05-01T02:45:23.824Z,67.24
2023-05-01T02:47:57.130Z,67.23
2023-05-01T02:50:28.737Z,67.15
2023-05-01T02:53:00.835Z,67.33
2023-05-01T02:55:31.559Z,67.43
2023-05-01T02:58:02.916Z,67.35
2023-05-01T03:00:35.471Z,67.22
2023-05-01T03:03:06.044Z,67.08
2023-05-01T03:05:37.184Z,67.15
2023-05-01T03:08:09.634Z,67.00
2023-05-01T03:10:43.436Z,66.63
2023-05-01T03:13:14.468Z,66.23
2023-05-01T03:15:48.888Z,66.28
2023-05-01T03:18:19.760Z,66.33
2023-05-01T03:20:54.883Z,66.40
2023-05-01T03:23:26.014Z,66.31
2023-05-01T03:25:57.806Z,66.42
2023-05-01T03:28:29.817Z,66.37
2023-05-01T03:31:00.393Z,66.40
2023-05-01T03:33:32.650Z,66.31
2023-05-01T03:36:05.487Z,66.18
2023-05-01T03:38:35.948Z,66.36
2023-05-01T03:41:07.691Z,66.17
2023-05-01T03:43:39.297Z,66.18
2023-05-01T03:46:09.916Z,66.61
2023-05-01T03:48:41.101Z,66.79
2023-05-01T03:51:11.628Z,66.51
2023-05-01T03:53:42.556Z,66.66
2023-05-01T03:56:13.152Z,66.23
2023-05-01T03:58:43.789Z,66.30
2023-05-01T04:01:15.879Z,65.79
2023-05-01T04:03:47.628Z,66.01
2023-05-01T04:06:18.342Z,66.10
2023-05-01T04:08:48.718Z,65.88
2023-05-01T04:11:19.349Z,66.07
2023-05-01T04:13:50.290Z,65.66
2023-05-01T04:16:20.936Z,65.67
2023-05-01T04:18:53.194Z,65.54
2023-05-01T04:21:23.876Z,65.39
2023-05-01T04:23:54.387Z,65.41
2023-05-01T04:26:24.995Z,65.14
2023-05-01T04:28:57.866Z,64.93
2023-05-01T04:31:28.384Z,64.95
2023-05-01T04:33:59.043Z,65.00
2023-05-01T04:36:29.566Z,65.09
2023-05-01T04:39:00.350Z,64.71
2023-05-01T04:41:32.751Z,64.38
2023-05-01T04:44:03.403Z,63.95
2023-05-01T04:46:35.765Z,63.65
2023-05-01T04:49:09.354Z,63.34
2023-05-01T04:51:41.443Z,62.71
2023-05-01T04:54:13.575Z,62.48
2023-05-01T04:56:44.118Z,62.26
2023-05-01T04:59:14.694Z,61.45
2023-05-01T05:01:45.497Z,60.91
2023-05-01T05:04:18.629Z,57.44
2023-05-01T05:06:50.537Z,53.83
2023-05-01T05:09:24.398Z,50.68
2023-05-01T05:11:54.985Z,49.96
2023-05-01T05:14:28.174Z,48.40
2023-05-01T05:17:01.964Z,46.95
2023-05-01T05:19:33.009Z,46.47
2023-05-01T05:22:04.248Z,46.82
2023-05-01T05:24:34.940Z,46.56
2023-05-01T05:27:07.182Z,48.70
2023-05-01T05:29:37.740Z,47.28
2023-05-01T05:32:08.475Z,45.45
2023-05-01T05:34:39.171Z,44.23
2023-05-01T05:37:09.650Z,42.61
2023-05-01T05:39:41.631Z,41.39
2023-05-01T05:42:13.072Z,43.61
2023-05-01T05:44:49.895Z,42.68
2023-05-01T05:47:20.514Z,41.75
2023-05-01T05:49:51.160Z,41.56
2023-05-01T05:52:23.193Z,41.35
2023-05-01T05:54:53.810Z,40.86
2023-05-01T05:57:24.735Z,40.94
2023-05-01T05:59:55.928Z,44.49
2023-05-01T06:02:27.754Z,43.66
2023-05-01T06:05:03.480Z,42.81
2023-05-01T06:07:34.259Z,42.62
2023-05-01T06:10:06.138Z,45.20
2023-05-01T06:12:41.349Z,45.30
2023-05-01T06:15:13.345Z,44.15
2023-05-01T06:17:45.322Z,43.55
2023-05-01T06:20:16.220Z,44.49
2023-05-01T06:22:47.889Z,45.53
2023-05-01T06:25:19.503Z,43.52
2023-05-01T06:27:50.757Z,42.09
2023-05-01T06:30:21.978Z,45.61
2023-05-01T06:32:52.894Z,44.11
2023-05-01T06:35:23.800Z,45.88
2023-05-01T06:37:56.102Z,47.86
2023-05-01T06:40:26.839Z,48.66
2023-05-01T06:42:57.407Z,48.59
2023-05-01T06:45:28.289Z,50.41
2023-05-01T06:47:59.452Z,50.86
2023-05-01T06:50:31.456Z,51.32
2023-05-01T06:53:02.812Z,51.59
2023-05-01T06:55:36.010Z,51.63
2023-05-01T06:58:22.405Z,51.32
2023-05-01T07:00:40.801Z,51.18
2023-05-01T07:03:11.732Z,51.22
2023-05-01T07:05:42.356Z,50.48
2023-05-01T07:08:12.938Z,49.98
2023-05-01T07:10:45.974Z,50.50
2023-05-01T07:13:17.133Z,50.42
2023-05-01T07:15:49.242Z,49.88
2023-05-01T07:18:20.147Z,49.47
2023-05-01T07:20:51.533Z,48.92
2023-05-01T07:23:24.014Z,48.63
2023-05-01T07:25:54.624Z,48.10
2023-05-01T07:28:27.240Z,47.30
2023-05-01T07:30:57.744Z,47.06
2023-05-01T07:33:30.937Z,46.55
2023-05-01T07:36:04.683Z,46.13
2023-05-01T07:38:35.169Z,45.67
2023-05-01T07:41:06.362Z,46.45
2023-05-01T07:43:37.440Z,46.28
2023-05-01T07:46:08.221Z,45.75
2023-05-01T07:48:39.201Z,45.34
2023-05-01T07:51:10.857Z,46.66
2023-05-01T07:53:42.305Z,46.05
2023-05-01T07:56:14.779Z,45.55
2023-05-01T07:58:45.077Z,44.51
2023-05-01T08:01:15.783Z,43.96
2023-05-01T08:03:50.932Z,43.85
2023-05-01T08:06:21.255Z,44.10
2023-05-01T08:08:51.717Z,43.95
2023-05-01T08:11:22.830Z,45.12
2023-05-01T08:13:54.749Z,44.44
2023-05-01T08:16:28.064Z,45.12
2023-05-01T08:19:00.043Z,44.74
2023-05-01T08:21:31.373Z,44.88
2023-05-01T08:24:01.969Z,44.95
2023-05-01T08:26:32.587Z,46.03
2023-05-01T08:29:04.745Z,45.40
2023-05-01T08:31:36.936Z,45.36
2023-05-01T08:34:07.671Z,44.09
2023-05-01T08:36:38.883Z,43.97
2023-05-01T08:39:09.812Z,43.60
2023-05-01T08:41:41.005Z,42.72
2023-05-01T08:44:13.764Z,42.63
2023-05-01T08:47:13.961Z,42.53
2023-05-01T08:49:46.491Z,42.67
2023-05-01T08:52:17.419Z,43.31
2023-05-01T08:54:50.642Z,43.14
2023-05-01T08:57:22.793Z,42.42
2023-05-01T08:59:56.426Z,42.43
2023-05-01T09:02:28.876Z,42.09
2023-05-01T09:05:01.537Z,41.49
2023-05-01T09:07:32.620Z,41.73
2023-05-01T09:10:04.857Z,41.53
2023-05-01T09:12:38.877Z,41.20
2023-05-01T09:15:11.702Z,41.24
2023-05-01T09:17:45.053Z,41.35
2023-05-01T09:20:17.492Z,41.31
2023-05-01T09:22:48.604Z,40.90
2023-05-01T09:25:20.508Z,40.98
2023-05-01T09:27:51.500Z,40.79
2023-05-01T09:30:35.611Z,39.60
2023-05-01T09:33:12.057Z,39.08
2023-05-01T09:35:57.196Z,38.79
2023-05-01T09:38:31.704Z,38.61
2023-05-01T09:41:06.394Z,38.29
2023-05-01T09:43:38.087Z,38.78
2023-05-01T09:46:12.969Z,38.06
2023-05-01T09:48:46.687Z,37.77
2023-05-01T09:51:27.201Z,40.28
2023-05-01T09:54:02.180Z,39.82
2023-05-01T09:56:34.203Z,39.19
2023-05-01T09:59:20.120Z,39.65
2023-05-01T10:01:51.342Z,39.53
2023-05-01T10:04:24.994Z,40.22
2023-05-01T10:06:55.721Z,39.88
2023-05-01T10:09:34.703Z,39.21
2023-05-01T10:12:07.841Z,39.09
2023-05-01T10:14:41.843Z,39.47
2023-05-01T10:17:22.293Z,40.13
2023-05-01T10:19:53.263Z,40.48
2023-05-01T10:22:26.695Z,40.62
2023-05-01T10:24:59.819Z,41.04
2023-05-01T10:27:32.540Z,41.00
2023-05-01T10:30:10.715Z,41.10
2023-05-01T10:32:43.093Z,41.17
2023-05-01T10:35:16.220Z,41.06
2023-05-01T10:37:52.909Z,41.08
2023-05-01T10:40:50.122Z,40.79
2023-05-01T10:43:28.860Z,40.38
2023-05-01T10:46:20.918Z,40.49
2023-05-01T10:48:56.060Z,41.12
2023-05-01T10:51:29.982Z,41.42
2023-05-01T10:54:21.898Z,40.59
2023-05-01T10:56:53.742Z,40.80
2023-05-01T10:59:25.138Z,40.49
2023-05-01T11:01:57.308Z,39.52
2023-05-01T11:04:31.346Z,39.45
2023-05-01T11:07:09.316Z,40.77
2023-05-01T11:09:49.528Z,40.36
2023-05-01T11:12:52.536Z,39.80
2023-05-01T11:15:30.942Z,39.73
2023-05-01T11:18:03.597Z,40.36
2023-05-01T11:20:40.143Z,40.26
2023-05-01T11:23:13.690Z,39.86
2023-05-01T11:25:46.517Z,40.68
2023-05-01T11:28:20.560Z,40.73
2023-05-01T11:30:51.591Z,40.30
2023-05-01T11:33:26.319Z,38.99
2023-05-01T11:36:01.506Z,38.40
2023-05-01T11:38:32.101Z,38.15
2023-05-01T11:41:06.476Z,38.69
2023-05-01T11:43:40.042Z,38.72
2023-05-01T11:46:10.805Z,38.53
2023-05-01T11:48:44.418Z,37.35
2023-05-01T11:51:15.316Z,37.06
2023-05-01T11:54:05.370Z,36.63
2023-05-01T11:56:37.166Z,38.59
2023-05-01T11:59:16.710Z,38.43
2023-05-01T12:01:47.994Z,38.07
2023-05-01T12:04:31.918Z,37.34
2023-05-01T12:07:00.780Z,36.68
2023-05-01T12:09:32.039Z,38.26
2023-05-01T12:12:03.688Z,38.04
2023-05-01T12:14:34.320Z,38.77
2023-05-01T12:17:07.080Z,39.08
2023-05-01T12:19:49.261Z,38.42
2023-05-01T12:22:23.918Z,37.97
2023-05-01T12:24:57.169Z,36.86
2023-05-01T12:27:27.971Z,37.97
2023-05-01T12:29:58.661Z,36.93
2023-05-01T12:32:33.996Z,38.38
2023-05-01T12:35:17.717Z,37.35
2023-05-01T12:37:48.504Z,37.88
2023-05-01T12:40:19.343Z,37.34
2023-05-01T12:42:59.856Z,37.83
2023-05-01T12:45:30.640Z,37.84
2023-05-01T12:48:01.413Z,37.65
2023-05-01T12:50:35.158Z,37.20
2023-05-01T12:53:07.186Z,37.65
2023-05-01T12:55:45.800Z,37.36
2023-05-01T12:58:17.846Z,37.70
2023-05-01T13:00:56.247Z,37.29
2023-05-01T13:03:29.319Z,37.73
2023-05-01T13:06:05.754Z,37.48
2023-05-01T13:08:40.192Z,37.69
2023-05-01T13:11:16.161Z,37.16
2023-05-01T13:13:48.471Z,37.11
2023-05-01T13:16:20.199Z,36.01
2023-05-01T13:18:53.723Z,36.58
2023-05-01T13:21:26.960Z,35.47
2023-05-01T13:24:00.386Z,35.46
2023-05-01T13:26:36.219Z,37.11
2023-05-01T13:29:07.438Z,36.73
2023-05-01T13:31:41.643Z,36.02
2023-05-01T13:34:17.772Z,36.88
2023-05-01T13:36:49.906Z,36.52
2023-05-01T13:39:21.629Z,35.55
2023-05-01T13:41:53.489Z,35.07
2023-05-01T13:44:25.821Z,34.91
2023-05-01T13:46:56.457Z,35.66
2023-05-01T13:49:30.134Z,36.13
2023-05-01T13:52:02.290Z,36.53
2023-05-01T13:54:33.069Z,36.93
2023-05-01T13:57:05.331Z,37.43
2023-05-01T13:59:42.225Z,37.02
2023-05-01T14:02:29.999Z,37.41
2023-05-01T14:05:04.963Z,37.25
2023-05-01T14:07:41.000Z,37.70
2023-05-01T14:10:13.828Z,37.25
2023-05-01T14:12:45.473Z,37.31
2023-05-01T14:15:18.307Z,37.49
2023-05-01T14:17:50.488Z,37.54
2023-05-01T14:20:21.653Z,37.46
2023-05-01T14:22:53.827Z,38.15
2023-05-01T14:25:31.315Z,38.26
2023-05-01T14:28:04.619Z,37.29
2023-05-01T14:30:38.818Z,37.65
2023-05-01T14:33:14.861Z,37.60
2023-05-01T14:35:49.925Z,36.55
2023-05-01T14:38:22.171Z,35.97
2023-05-01T14:40:55.411Z,35.56
2023-05-01T14:43:27.466Z,34.93
2023-05-01T14:45:59.061Z,33.94
2023-05-01T14:48:37.653Z,33.94
2023-05-01T14:51:16.574Z,35.21
2023-05-01T14:53:47.307Z,33.46
2023-05-01T14:56:17.946Z,34.78
2023-05-01T14:58:48.827Z,34.76
2023-05-01T15:01:20.281Z,33.82
2023-05-01T15:03:55.476Z,34.38
2023-05-01T15:06:28.227Z,35.53
2023-05-01T15:08:58.793Z,35.20
2023-05-01T15:11:30.922Z,35.07
2023-05-01T15:14:02.626Z,34.63
2023-05-01T15:16:33.406Z,34.60
2023-05-01T15:19:06.173Z,34.52
2023-05-01T15:21:38.144Z,34.86
2023-05-01T15:24:10.613Z,34.80
2023-05-01T15:26:43.218Z,34.44
2023-05-01T15:29:14.288Z,35.33
2023-05-01T15:31:46.182Z,35.26
2023-05-01T15:34:19.431Z,35.60
2023-05-01T15:36:51.150Z,35.51
2023-05-01T15:39:21.998Z,35.72
2023-05-01T15:41:52.828Z,35.41
2023-05-01T15:44:23.397Z,36.04
2023-05-01T15:46:54.228Z,36.69
2023-05-01T15:49:26.185Z,37.14
2023-05-01T15:51:56.823Z,37.41
2023-05-01T15:54:28.365Z,37.35
2023-05-01T15:57:01.284Z,37.28
2023-05-01T15:59:33.175Z,37.23
2023-05-01T16:02:03.856Z,37.28
2023-05-01T16:04:34.841Z,37.38
2023-05-01T16:07:06.474Z,37.83
2023-05-01T16:09:37.031Z,37.99
2023-05-01T16:12:09.591Z,37.82
2023-05-01T16:14:42.390Z,38.32
2023-05-01T16:17:15.112Z,38.20
2023-05-01T16:19:47.058Z,37.70
2023-05-01T16:22:21.137Z,37.50
2023-05-01T16:24:51.824Z,37.52
2023-05-01T16:27:23.627Z,37.55
2023-05-01T16:29:56.979Z,37.65
2023-05-01T16:32:27.235Z,37.72
2023-05-01T16:35:00.124Z,37.22
2023-05-01T16:37:32.865Z,37.14
2023-05-01T16:40:11.478Z,37.30
2023-05-01T16:42:42.266Z,37.20
2023-05-01T16:45:15.288Z,37.67
2023-05-01T16:47:46.266Z,37.85
2023-05-01T16:50:17.241Z,37.74
2023-05-01T16:52:48.908Z,37.79
2023-05-01T16:55:19.426Z,37.37
2023-05-01T16:57:49.899Z,37.38
2023-05-01T17:00:21.137Z,37.38
2023-05-01T17:02:53.524Z,36.79
2023-05-01T17:05:24.993Z,36.59
2023-05-01T17:07:55.941Z,36.33
2023-05-01T17:10:29.088Z,36.21
2023-05-01T17:12:58.855Z,36.14
2023-05-01T17:15:29.640Z,36.68
2023-05-01T17:18:02.010Z,37.08
2023-05-01T17:20:33.188Z,37.67
2023-05-01T17:23:04.017Z,37.89
2023-05-01T17:25:34.537Z,38.08
2023-05-01T17:28:05.156Z,38.06
2023-05-01T17:30:36.324Z,38.37
2023-05-01T17:33:06.896Z,38.69
2023-05-01T17:35:37.547Z,39.22
2023-05-01T17:38:10.588Z,39.25
2023-05-01T17:40:42.205Z,39.64
2023-05-01T17:43:12.776Z,39.94
2023-05-01T17:45:45.114Z,40.33
2023-05-01T17:48:15.799Z,40.61
2023-05-01T17:50:47.503Z,40.59
2023-05-01T17:53:18.259Z,40.70
2023-05-01T17:55:48.886Z,40.87
2023-05-01T17:58:21.060Z,40.90
2023-05-01T18:00:51.660Z,41.02
2023-05-01T18:03:22.296Z,41.35
2023-05-01T18:05:54.846Z,41.42
2023-05-01T18:08:25.498Z,42.08
2023-05-01T18:10:56.094Z,42.25
2023-05-01T18:13:29.332Z,42.50
2023-05-01T18:16:01.475Z,42.82
2023-05-01T18:18:32.959Z,43.13
2023-05-01T18:21:07.000Z,43.41
2023-05-01T18:23:38.328Z,43.76
2023-05-01T18:26:09.287Z,43.94
2023-05-01T18:28:41.317Z,44.14
2023-05-01T18:31:12.031Z,44.55
2023-05-01T18:33:42.529Z,44.57
2023-05-01T18:36:13.132Z,44.95
2023-05-01T18:38:43.761Z,45.17
2023-05-01T18:41:15.952Z,45.32
2023-05-01T18:43:51.860Z,45.57
2023-05-01T18:46:21.569Z,45.97
2023-05-01T18:48:53.818Z,46.72
2023-05-01T18:51:24.572Z,46.81
2023-05-01T18:53:56.161Z,47.25
2023-05-01T18:56:27.770Z,47.25
2023-05-01T18:58:59.474Z,47.21
2023-05-01T19:01:30.126Z,47.46
2023-05-01T19:04:00.807Z,47.36
2023-05-01T19:06:31.641Z,48.14
2023-05-01T19:09:02.327Z,47.67
2023-05-01T19:11:33.257Z,47.61
2023-05-01T19:14:04.051Z,47.91
2023-05-01T19:16:34.810Z,48.31
2023-05-01T19:19:06.455Z,48.35
2023-05-01T19:21:40.116Z,48.56
2023-05-01T19:24:14.556Z,49.04
2023-05-01T19:26:47.070Z,49.62
2023-05-01T19:29:17.919Z,49.62
2023-05-01T19:31:48.650Z,50.15
2023-05-01T19:34:23.409Z,50.01
2023-05-01T19:36:55.828Z,50.66
2023-05-01T19:39:27.950Z,50.50
2023-05-01T19:42:00.005Z,50.53
2023-05-01T19:44:30.940Z,50.40
2023-05-01T19:47:02.964Z,50.30
2023-05-01T19:49:33.914Z,50.00
2023-05-01T19:52:04.594Z,50.22
2023-05-01T19:54:35.500Z,50.23
2023-05-01T19:57:10.266Z,49.93
2023-05-01T19:59:43.797Z,50.45
2023-05-01T20:02:16.222Z,50.63
2023-05-01T20:04:48.092Z,51.03
2023-05-01T20:07:18.829Z,51.49
2023-05-01T20:09:53.503Z,51.57
2023-05-01T20:12:24.628Z,51.78
2023-05-01T20:14:55.831Z,51.87
2023-05-01T20:17:27.256Z,51.72
2023-05-01T20:19:59.884Z,51.59
2023-05-01T20:22:30.912Z,51.39
2023-05-01T20:25:01.601Z,51.73
2023-05-01T20:27:33.708Z,51.85
2023-05-01T20:30:05.276Z,51.80
2023-05-01T20:32:36.951Z,52.19
2023-05-01T20:35:08.476Z,52.43
2023-05-01T20:37:39.052Z,52.58
2023-05-01T20:40:11.729Z,52.45
2023-05-01T20:42:43.517Z,52.46
2023-05-01T20:45:14.208Z,53.01
2023-05-01T20:47:45.234Z,53.43
2023-05-01T20:50:17.557Z,53.68
2023-05-01T20:52:48.232Z,53.62
2023-05-01T20:55:19.584Z,53.46
2023-05-01T20:57:50.331Z,53.24
2023-05-01T21:00:21.135Z,52.91
2023-05-01T21:02:52.963Z,52.78
2023-05-01T21:05:23.797Z,52.67
2023-05-01T21:07:54.361Z,52.81
2023-05-01T21:10:25.727Z,52.87
2023-05-01T21:12:57.034Z,52.78
2023-05-01T21:15:27.653Z,53.36
2023-05-01T21:17:58.341Z,53.14
2023-05-01T21:20:34.956Z,53.40
2023-05-01T21:23:06.082Z,53.22
2023-05-01T21:25:37.065Z,53.26
2023-05-01T21:28:09.094Z,53.23
2023-05-01T21:30:40.424Z,53.44
2023-05-01T21:33:17.557Z,53.62
2023-05-01T21:35:49.260Z,53.83
2023-05-01T21:38:20.384Z,53.79
2023-05-01T21:40:51.200Z,54.06
2023-05-01T21:43:21.790Z,54.12
2023-05-01T21:45:54.223Z,54.04
2023-05-01T21:48:26.482Z,54.41
2023-05-01T21:50:57.130Z,54.51
2023-05-01T21:53:30.134Z,54.83
2023-05-01T21:56:01.227Z,54.90
2023-05-01T21:58:31.966Z,55.04
2023-05-01T22:01:07.623Z,55.19
2023-05-01T22:03:41.696Z,55.19
2023-05-01T22:06:12.387Z,55.61
2023-05-01T22:08:42.992Z,55.73
2023-05-01T22:11:13.498Z,55.87
2023-05-01T22:13:45.488Z,56.00
2023-05-01T22:16:17.131Z,55.88
2023-05-01T22:18:49.816Z,55.91
2023-05-01T22:21:27.209Z,55.79
2023-05-01T22:24:01.695Z,55.49
2023-05-01T22:26:40.302Z,53.88
2023-05-01T22:29:10.806Z,53.41
2023-05-01T22:31:41.442Z,53.13
2023-05-01T22:34:11.995Z,53.50
2023-05-01T22:36:42.556Z,54.34
2023-05-01T22:39:13.454Z,54.90
2023-05-01T22:41:43.923Z,54.97
2023-05-01T22:44:14.941Z,55.46
2023-05-01T22:46:45.736Z,55.69
2023-05-01T22:49:16.455Z,56.04
2023-05-01T22:51:48.293Z,55.80
2023-05-01T22:54:18.820Z,55.78
2023-05-01T22:56:50.934Z,55.71
2023-05-01T22:59:21.695Z,55.68
2023-05-01T23:01:52.646Z,55.38
2023-05-01T23:04:25.993Z,55.36
2023-05-01T23:06:57.331Z,55.02
2023-05-01T23:09:29.558Z,55.16
2023-05-01T23:12:00.071Z,54.21
2023-05-01T23:14:30.781Z,54.49
2023-05-01T23:17:02.726Z,53.40
2023-05-01T23:19:33.443Z,53.40
2023-05-01T23:22:09.420Z,53.22
2023-05-01T23:24:46.987Z,52.56
2023-05-01T23:27:21.624Z,52.45
2023-05-01T23:29:58.700Z,52.02
2023-05-01T23:32:31.883Z,51.60
2023-05-01T23:35:05.470Z,52.21
2023-05-01T23:37:36.055Z,52.66
2023-05-01T23:40:08.730Z,53.22
2023-05-01T23:42:40.324Z,53.43
2023-05-01T23:45:11.106Z,53.30
2023-05-01T23:47:41.757Z,53.14
2023-05-01T23:50:12.743Z,52.57
2023-05-01T23:52:43.429Z,52.77
2023-05-01T23:55:15.641Z,51.61
2023-05-01T23:57:46.520Z,51.06
